Sturdies Bay, Canada
Current Conditions -  °F | °C
As of 10:00 AM on Thursday 30 Oct 2014 (Local Time) from CYYJ Reporting Station
Light Rain Light Rain  
Wind Chill: 50°   Ceiling: 8600
Heat Index: 50°   Visibility: 20mi
Dew Point: 50°   Wind: 6mph
Humidity: 100%   Direction: 250°WSW
Pressure: 29.82"   Gusts: NA
Location:  48.88°N, 123.32°W
Report Text: CYYJ 301700Z 25005KT 20SM -RA FEW070 BKN086 OVC130 10/10 A2982 RMK AC1AC5AC2 SLP098
Loading
Personal Weather Stations






























Interactive Weather Map
Tropical Storm Tracking
New forecast layout! Learn more

10-Day Weather Forecast

Advertisements
Track Severe Weather on mobile